sensor_id;sensor_type;location;lat;lon;timestamp;pressure;altitude;pressure_sealevel;temperature;humidity
71361;BME280;59166;48.908;1.870;2024-02-26T00:04:57;97496.06;;;7.90;100.00
71361;BME280;59166;48.908;1.870;2024-02-26T00:09:58;97496.56;;;7.92;100.00
71361;BME280;59166;48.908;1.870;2024-02-26T00:15:00;97494.34;;;7.86;100.00
71361;BME280;59166;48.908;1.870;2024-02-26T00:20:01;97506.19;;;7.85;100.00
71361;BME280;59166;48.908;1.870;2024-02-26T00:25:03;97507.16;;;7.89;100.00
71361;BME280;59166;48.908;1.870;2024-02-26T00:30:07;97512.81;;;7.87;100.00
71361;BME280;59166;48.908;1.870;2024-02-26T00:35:08;97517.09;;;7.88;100.00
71361;BME280;59166;48.908;1.870;2024-02-26T00:40:09;97527.41;;;7.95;100.00
71361;BME280;59166;48.908;1.870;2024-02-26T00:45:11;97535.34;;;8.00;100.00
71361;BME280;59166;48.908;1.870;2024-02-26T00:50:12;97534.72;;;8.03;100.00
71361;BME280;59166;48.908;1.870;2024-02-26T00:55:12;97540.09;;;8.11;100.00
71361;BME280;59166;48.908;1.870;2024-02-26T01:00:16;97541.06;;;8.15;100.00
71361;BME280;59166;48.908;1.870;2024-02-26T01:05:16;97549.78;;;8.21;100.00
71361;BME280;59166;48.908;1.870;2024-02-26T01:10:17;97541.59;;;8.26;100.00
71361;BME280;59166;48.908;1.870;2024-02-26T01:15:19;97553.47;;;8.34;100.00
71361;BME280;59166;48.908;1.870;2024-02-26T01:20:20;97563.78;;;8.40;100.00
71361;BME280;59166;48.908;1.870;2024-02-26T01:25:21;97562.06;;;8.53;100.00
71361;BME280;59166;48.908;1.870;2024-02-26T01:30:22;97560.78;;;8.50;100.00
71361;BME280;59166;48.908;1.870;2024-02-26T01:35:23;97568.88;;;8.59;100.00
71361;BME280;59166;48.908;1.870;2024-02-26T01:40:26;97572.81;;;8.61;100.00
71361;BME280;59166;48.908;1.870;2024-02-26T01:45:28;97578.38;;;8.65;100.00
71361;BME280;59166;48.908;1.870;2024-02-26T01:50:29;97576.13;;;8.58;100.00
71361;BME280;59166;48.908;1.870;2024-02-26T01:55:29;97584.22;;;8.58;100.00
71361;BME280;59166;48.908;1.870;2024-02-26T02:00:32;97584.38;;;8.62;100.00
71361;BME280;59166;48.908;1.870;2024-02-26T02:05:33;97594.84;;;8.63;100.00
71361;BME280;59166;48.908;1.870;2024-02-26T02:10:34;97590.09;;;8.69;100.00
71361;BME280;59166;48.908;1.870;2024-02-26T02:15:37;97588.81;;;8.66;100.00
71361;BME280;59166;48.908;1.870;2024-02-26T02:20:39;97593.25;;;8.62;100.00
71361;BME280;59166;48.908;1.870;2024-02-26T02:25:39;97595.94;;;8.62;100.00
71361;BME280;59166;48.908;1.870;2024-02-26T02:30:40;97597.38;;;8.60;100.00
71361;BME280;59166;48.908;1.870;2024-02-26T02:35:42;97604.34;;;8.61;100.00
71361;BME280;59166;48.908;1.870;2024-02-26T02:40:43;97596.41;;;8.56;100.00
71361;BME280;59166;48.908;1.870;2024-02-26T02:45:44;97608.59;;;8.53;100.00
71361;BME280;59166;48.908;1.870;2024-02-26T02:50:46;97615.22;;;8.47;100.00
71361;BME280;59166;48.908;1.870;2024-02-26T02:55:46;97607.44;;;8.37;100.00
71361;BME280;59166;48.908;1.870;2024-02-26T03:00:47;97617.88;;;8.39;100.00
71361;BME280;59166;48.908;1.870;2024-02-26T03:05:49;97616.56;;;8.27;100.00
71361;BME280;59166;48.908;1.870;2024-02-26T03:10:50;97623.19;;;8.21;100.00
71361;BME280;59166;48.908;1.870;2024-02-26T03:15:50;97632.03;;;8.13;100.00
71361;BME280;59166;48.908;1.870;2024-02-26T03:20:52;97636.28;;;8.14;100.00
71361;BME280;59166;48.908;1.870;2024-02-26T03:25:53;97635.91;;;8.07;100.00
71361;BME280;59166;48.908;1.870;2024-02-26T03:30:53;97644.50;;;8.09;100.00
71361;BME280;59166;48.908;1.870;2024-02-26T03:35:55;97646.19;;;8.05;100.00
71361;BME280;59166;48.908;1.870;2024-02-26T03:40:56;97656.75;;;7.93;100.00
71361;BME280;59166;48.908;1.870;2024-02-26T03:45:57;97669.81;;;7.86;100.00
71361;BME280;59166;48.908;1.870;2024-02-26T03:50:59;97667.59;;;7.88;100.00
71361;BME280;59166;48.908;1.870;2024-02-26T03:56:03;97673.59;;;7.85;100.00
71361;BME280;59166;48.908;1.870;2024-02-26T04:01:04;97687.31;;;7.84;100.00
71361;BME280;59166;48.908;1.870;2024-02-26T04:06:08;97688.13;;;7.84;100.00
71361;BME280;59166;48.908;1.870;2024-02-26T04:11:09;97693.50;;;7.84;100.00
71361;BME280;59166;48.908;1.870;2024-02-26T04:16:09;97710.91;;;7.87;100.00
71361;BME280;59166;48.908;1.870;2024-02-26T04:21:11;97714.56;;;7.91;100.00
71361;BME280;59166;48.908;1.870;2024-02-26T04:26:12;97712.69;;;7.91;100.00
71361;BME280;59166;48.908;1.870;2024-02-26T04:31:13;97725.25;;;8.04;100.00
71361;BME280;59166;48.908;1.870;2024-02-26T04:36:15;97729.34;;;8.02;100.00
71361;BME280;59166;48.908;1.870;2024-02-26T04:41:15;97729.34;;;8.02;100.00
71361;BME280;59166;48.908;1.870;2024-02-26T04:46:16;97730.00;;;8.07;100.00
71361;BME280;59166;48.908;1.870;2024-02-26T04:51:18;97746.03;;;8.12;100.00
71361;BME280;59166;48.908;1.870;2024-02-26T04:56:20;97746.50;;;8.14;100.00
71361;BME280;59166;48.908;1.870;2024-02-26T05:01:20;97763.97;;;8.17;100.00
71361;BME280;59166;48.908;1.870;2024-02-26T05:06:22;97768.22;;;8.18;100.00
71361;BME280;59166;48.908;1.870;2024-02-26T05:11:23;97775.97;;;8.19;100.00
71361;BME280;59166;48.908;1.870;2024-02-26T05:16:23;97778.06;;;8.22;100.00
71361;BME280;59166;48.908;1.870;2024-02-26T05:21:25;97788.19;;;8.25;100.00
71361;BME280;59166;48.908;1.870;2024-02-26T05:26:26;97791.97;;;8.24;100.00
71361;BME280;59166;48.908;1.870;2024-02-26T05:31:27;97797.34;;;8.24;100.00
71361;BME280;59166;48.908;1.870;2024-02-26T05:36:29;97811.50;;;8.30;100.00
71361;BME280;59166;48.908;1.870;2024-02-26T05:41:30;97812.16;;;8.36;100.00
71361;BME280;59166;48.908;1.870;2024-02-26T05:46:30;97820.03;;;8.32;100.00
71361;BME280;59166;48.908;1.870;2024-02-26T05:51:32;97818.44;;;8.31;100.00
71361;BME280;59166;48.908;1.870;2024-02-26T05:56:33;97839.25;;;8.39;100.00
71361;BME280;59166;48.908;1.870;2024-02-26T06:01:34;97838.06;;;8.31;100.00
71361;BME280;59166;48.908;1.870;2024-02-26T06:06:35;97846.47;;;8.30;100.00
71361;BME280;59166;48.908;1.870;2024-02-26T06:11:36;97858.72;;;8.45;100.00
71361;BME280;59166;48.908;1.870;2024-02-26T06:16:37;97867.28;;;8.69;100.00
71361;BME280;59166;48.908;1.870;2024-02-26T06:21:39;97875.94;;;8.57;100.00
71361;BME280;59166;48.908;1.870;2024-02-26T06:26:39;97881.44;;;8.52;100.00
71361;BME280;59166;48.908;1.870;2024-02-26T06:31:40;97885.63;;;8.45;100.00
71361;BME280;59166;48.908;1.870;2024-02-26T06:36:42;97885.16;;;8.43;100.00
71361;BME280;59166;48.908;1.870;2024-02-26T06:41:43;97898.03;;;8.32;100.00
71361;BME280;59166;48.908;1.870;2024-02-26T06:46:43;97901.03;;;8.30;100.00
71361;BME280;59166;48.908;1.870;2024-02-26T06:51:45;97910.59;;;8.37;100.00
71361;BME280;59166;48.908;1.870;2024-02-26T06:56:46;97924.88;;;8.23;100.00
71361;BME280;59166;48.908;1.870;2024-02-26T07:01:46;97923.34;;;8.31;100.00
71361;BME280;59166;48.908;1.870;2024-02-26T07:06:48;97946.94;;;8.34;100.00
71361;BME280;59166;48.908;1.870;2024-02-26T07:11:49;97946.38;;;8.37;100.00
71361;BME280;59166;48.908;1.870;2024-02-26T07:16:50;97957.41;;;8.36;100.00
71361;BME280;59166;48.908;1.870;2024-02-26T07:21:52;97965.00;;;8.34;100.00
71361;BME280;59166;48.908;1.870;2024-02-26T07:26:52;97972.91;;;8.52;100.00
71361;BME280;59166;48.908;1.870;2024-02-26T07:31:53;97979.28;;;8.56;100.00
71361;BME280;59166;48.908;1.870;2024-02-26T07:36:55;97996.13;;;8.84;100.00
71361;BME280;59166;48.908;1.870;2024-02-26T07:41:56;97998.31;;;8.82;100.00
71361;BME280;59166;48.908;1.870;2024-02-26T07:46:57;98008.78;;;8.83;100.00
71361;BME280;59166;48.908;1.870;2024-02-26T07:51:59;98023.81;;;8.98;100.00
71361;BME280;59166;48.908;1.870;2024-02-26T07:56:59;98028.00;;;9.04;100.00
71361;BME280;59166;48.908;1.870;2024-02-26T08:02:00;98025.88;;;9.15;100.00
71361;BME280;59166;48.908;1.870;2024-02-26T08:07:02;98037.03;;;9.08;100.00
71361;BME280;59166;48.908;1.870;2024-02-26T08:12:03;98041.09;;;9.19;100.00
71361;BME280;59166;48.908;1.870;2024-02-26T08:17:04;98045.28;;;9.12;100.00
71361;BME280;59166;48.908;1.870;2024-02-26T08:22:06;98063.31;;;9.25;100.00
71361;BME280;59166;48.908;1.870;2024-02-26T08:27:07;98061.78;;;9.32;100.00
71361;BME280;59166;48.908;1.870;2024-02-26T08:32:07;98060.94;;;9.23;100.00
71361;BME280;59166;48.908;1.870;2024-02-26T08:37:09;98071.34;;;9.39;100.00
71361;BME280;59166;48.908;1.870;2024-02-26T08:42:10;98084.94;;;9.33;100.00
71361;BME280;59166;48.908;1.870;2024-02-26T08:47:10;98093.50;;;9.36;100.00
71361;BME280;59166;48.908;1.870;2024-02-26T08:52:12;98101.53;;;9.27;100.00
71361;BME280;59166;48.908;1.870;2024-02-26T08:57:13;98107.75;;;9.36;100.00
71361;BME280;59166;48.908;1.870;2024-02-26T09:02:14;98124.50;;;9.47;100.00
71361;BME280;59166;48.908;1.870;2024-02-26T09:07:16;98129.25;;;9.50;100.00
71361;BME280;59166;48.908;1.870;2024-02-26T09:12:16;98134.91;;;9.40;100.00
71361;BME280;59166;48.908;1.870;2024-02-26T09:17:17;98146.47;;;9.40;100.00
71361;BME280;59166;48.908;1.870;2024-02-26T09:22:19;98161.75;;;9.45;100.00
71361;BME280;59166;48.908;1.870;2024-02-26T09:27:19;98165.94;;;9.37;100.00
71361;BME280;59166;48.908;1.870;2024-02-26T09:32:20;98173.56;;;9.35;100.00
71361;BME280;59166;48.908;1.870;2024-02-26T09:37:22;98180.44;;;9.27;100.00
71361;BME280;59166;48.908;1.870;2024-02-26T09:42:25;98196.69;;;9.36;100.00
71361;BME280;59166;48.908;1.870;2024-02-26T09:47:26;98200.75;;;9.47;100.00
71361;BME280;59166;48.908;1.870;2024-02-26T09:52:31;98207.81;;;9.57;100.00
71361;BME280;59166;48.908;1.870;2024-02-26T09:57:33;98215.22;;;9.51;100.00
71361;BME280;59166;48.908;1.870;2024-02-26T10:02:35;98227.88;;;9.51;100.00
71361;BME280;59166;48.908;1.870;2024-02-26T10:07:38;98235.63;;;9.66;100.00
71361;BME280;59166;48.908;1.870;2024-02-26T10:12:38;98250.47;;;9.77;100.00
71361;BME280;59166;48.908;1.870;2024-02-26T10:17:39;98266.09;;;9.53;100.00
71361;BME280;59166;48.908;1.870;2024-02-26T10:22:42;98279.72;;;9.34;100.00
71361;BME280;59166;48.908;1.870;2024-02-26T10:27:42;98295.78;;;9.12;100.00
71361;BME280;59166;48.908;1.870;2024-02-26T10:32:44;98307.06;;;9.00;100.00
71361;BME280;59166;48.908;1.870;2024-02-26T10:37:46;98309.63;;;8.92;100.00
71361;BME280;59166;48.908;1.870;2024-02-26T10:42:47;98315.78;;;8.78;100.00
71361;BME280;59166;48.908;1.870;2024-02-26T10:47:47;98326.09;;;8.58;100.00
71361;BME280;59166;48.908;1.870;2024-02-26T10:52:50;98327.72;;;8.59;100.00
71361;BME280;59166;48.908;1.870;2024-02-26T10:57:52;98347.31;;;8.46;100.00
71361;BME280;59166;48.908;1.870;2024-02-26T11:02:53;98356.28;;;8.22;100.00
71361;BME280;59166;48.908;1.870;2024-02-26T11:07:56;98371.13;;;8.20;100.00
71361;BME280;59166;48.908;1.870;2024-02-26T11:12:59;98381.94;;;8.15;100.00
71361;BME280;59166;48.908;1.870;2024-02-26T11:18:01;98389.28;;;8.09;100.00
71361;BME280;59166;48.908;1.870;2024-02-26T11:23:03;98395.69;;;8.13;100.00
71361;BME280;59166;48.908;1.870;2024-02-26T11:28:06;98411.03;;;8.13;100.00
71361;BME280;59166;48.908;1.870;2024-02-26T11:33:08;98416.19;;;8.09;100.00
71361;BME280;59166;48.908;1.870;2024-02-26T11:38:17;98422.78;;;7.98;100.00
71361;BME280;59166;48.908;1.870;2024-02-26T11:43:18;98427.81;;;8.05;100.00
71361;BME280;59166;48.908;1.870;2024-02-26T11:48:23;98425.56;;;7.93;100.00
71361;BME280;59166;48.908;1.870;2024-02-26T11:53:27;98433.63;;;7.93;100.00
71361;BME280;59166;48.908;1.870;2024-02-26T11:58:31;98429.47;;;8.01;100.00
71361;BME280;59166;48.908;1.870;2024-02-26T12:03:31;98440.66;;;7.89;100.00
71361;BME280;59166;48.908;1.870;2024-02-26T12:08:34;98440.44;;;7.86;100.00
71361;BME280;59166;48.908;1.870;2024-02-26T12:13:35;98452.84;;;7.82;100.00
71361;BME280;59166;48.908;1.870;2024-02-26T12:18:36;98475.75;;;7.74;100.00
71361;BME280;59166;48.908;1.870;2024-02-26T12:23:38;98477.00;;;7.63;100.00
71361;BME280;59166;48.908;1.870;2024-02-26T12:28:41;98485.69;;;7.50;100.00
71361;BME280;59166;48.908;1.870;2024-02-26T12:33:41;98498.34;;;7.49;100.00
71361;BME280;59166;48.908;1.870;2024-02-26T12:38:44;98504.47;;;7.55;100.00
71361;BME280;59166;48.908;1.870;2024-02-26T12:43:44;98511.72;;;7.54;100.00
71361;BME280;59166;48.908;1.870;2024-02-26T12:48:46;98538.25;;;7.61;100.00
71361;BME280;59166;48.908;1.870;2024-02-26T12:53:49;98526.06;;;7.45;100.00
71361;BME280;59166;48.908;1.870;2024-02-26T12:58:50;98530.47;;;7.31;100.00
71361;BME280;59166;48.908;1.870;2024-02-26T13:03:52;98541.53;;;7.29;100.00
71361;BME280;59166;48.908;1.870;2024-02-26T13:08:57;98549.56;;;7.29;100.00
71361;BME280;59166;48.908;1.870;2024-02-26T13:13:58;98564.84;;;7.34;100.00
71361;BME280;59166;48.908;1.870;2024-02-26T13:19:08;98565.22;;;7.17;100.00
71361;BME280;59166;48.908;1.870;2024-02-26T13:24:12;98577.34;;;7.14;100.00
71361;BME280;59166;48.908;1.870;2024-02-26T13:29:17;98576.84;;;7.07;100.00
71361;BME280;59166;48.908;1.870;2024-02-26T13:34:23;98582.47;;;7.11;100.00
71361;BME280;59166;48.908;1.870;2024-02-26T13:39:26;98598.34;;;7.07;100.00
71361;BME280;59166;48.908;1.870;2024-02-26T13:44:27;98604.56;;;6.98;100.00
71361;BME280;59166;48.908;1.870;2024-02-26T13:49:27;98624.44;;;7.02;100.00
71361;BME280;59166;48.908;1.870;2024-02-26T13:54:29;98635.97;;;6.97;100.00
71361;BME280;59166;48.908;1.870;2024-02-26T13:59:30;98636.28;;;6.91;100.00
71361;BME280;59166;48.908;1.870;2024-02-26T14:04:31;98634.41;;;6.91;100.00
71361;BME280;59166;48.908;1.870;2024-02-26T14:09:33;98645.66;;;6.98;100.00
71361;BME280;59166;48.908;1.870;2024-02-26T14:14:34;98651.78;;;6.99;100.00
71361;BME280;59166;48.908;1.870;2024-02-26T14:19:36;98669.88;;;6.88;100.00
71361;BME280;59166;48.908;1.870;2024-02-26T14:24:38;98684.31;;;6.92;100.00
71361;BME280;59166;48.908;1.870;2024-02-26T14:29:38;98696.66;;;6.98;100.00
71361;BME280;59166;48.908;1.870;2024-02-26T14:34:39;98700.97;;;6.94;100.00
71361;BME280;59166;48.908;1.870;2024-02-26T14:39:41;98700.41;;;6.97;100.00
71361;BME280;59166;48.908;1.870;2024-02-26T14:44:42;98714.13;;;6.86;100.00
71361;BME280;59166;48.908;1.870;2024-02-26T14:49:43;98726.53;;;6.76;100.00
71361;BME280;59166;48.908;1.870;2024-02-26T14:54:45;98721.72;;;6.73;100.00
71361;BME280;59166;48.908;1.870;2024-02-26T14:59:45;98764.66;;;6.63;100.00
71361;BME280;59166;48.908;1.870;2024-02-26T15:04:46;98767.34;;;6.63;100.00
71361;BME280;59166;48.908;1.870;2024-02-26T15:09:49;98770.06;;;6.53;100.00
71361;BME280;59166;48.908;1.870;2024-02-26T15:14:49;98791.78;;;6.52;100.00
71361;BME280;59166;48.908;1.870;2024-02-26T15:19:50;98798.75;;;6.53;100.00
71361;BME280;59166;48.908;1.870;2024-02-26T15:24:52;98810.00;;;6.45;100.00
71361;BME280;59166;48.908;1.870;2024-02-26T15:29:53;98822.94;;;6.48;100.00
71361;BME280;59166;48.908;1.870;2024-02-26T15:34:53;98835.22;;;6.44;100.00
71361;BME280;59166;48.908;1.870;2024-02-26T15:39:55;98832.81;;;6.42;100.00
71361;BME280;59166;48.908;1.870;2024-02-26T15:44:56;98841.66;;;6.43;100.00
71361;BME280;59166;48.908;1.870;2024-02-26T15:49:56;98846.75;;;6.39;100.00
71361;BME280;59166;48.908;1.870;2024-02-26T15:54:58;98866.06;;;6.26;100.00
71361;BME280;59166;48.908;1.870;2024-02-26T15:59:59;98879.19;;;6.33;100.00
71361;BME280;59166;48.908;1.870;2024-02-26T16:05:00;98887.78;;;6.30;100.00
71361;BME280;59166;48.908;1.870;2024-02-26T16:10:03;98901.19;;;6.30;100.00
71361;BME280;59166;48.908;1.870;2024-02-26T16:15:04;98911.13;;;6.24;100.00
71361;BME280;59166;48.908;1.870;2024-02-26T16:20:07;98915.66;;;6.23;100.00
71361;BME280;59166;48.908;1.870;2024-02-26T16:25:09;98921.00;;;6.13;100.00
71361;BME280;59166;48.908;1.870;2024-02-26T16:30:10;98946.72;;;5.99;100.00
71361;BME280;59166;48.908;1.870;2024-02-26T16:35:12;98962.81;;;6.09;100.00
71361;BME280;59166;48.908;1.870;2024-02-26T16:40:14;98967.34;;;5.99;100.00
71361;BME280;59166;48.908;1.870;2024-02-26T16:45:15;98980.50;;;6.00;100.00
71361;BME280;59166;48.908;1.870;2024-02-26T16:50:16;98993.09;;;6.05;100.00
71361;BME280;59166;48.908;1.870;2024-02-26T16:55:18;98997.09;;;5.97;100.00
71361;BME280;59166;48.908;1.870;2024-02-26T17:00:19;98999.78;;;5.97;100.00
71361;BME280;59166;48.908;1.870;2024-02-26T17:05:20;99027.09;;;5.94;100.00
71361;BME280;59166;48.908;1.870;2024-02-26T17:10:22;99042.09;;;5.90;100.00
71361;BME280;59166;48.908;1.870;2024-02-26T17:15:22;99038.56;;;5.85;100.00
71361;BME280;59166;48.908;1.870;2024-02-26T17:20:23;99069.13;;;5.84;100.00
71361;BME280;59166;48.908;1.870;2024-02-26T17:25:25;99078.47;;;5.81;100.00
71361;BME280;59166;48.908;1.870;2024-02-26T17:30:25;99090.78;;;5.77;100.00
71361;BME280;59166;48.908;1.870;2024-02-26T17:35:26;99091.63;;;5.83;100.00
71361;BME280;59166;48.908;1.870;2024-02-26T17:40:28;99106.06;;;5.82;100.00
71361;BME280;59166;48.908;1.870;2024-02-26T17:45:30;99123.47;;;5.79;100.00
71361;BME280;59166;48.908;1.870;2024-02-26T17:50:31;99137.66;;;5.74;100.00
71361;BME280;59166;48.908;1.870;2024-02-26T17:55:33;99151.91;;;5.80;100.00
71361;BME280;59166;48.908;1.870;2024-02-26T18:00:34;99152.38;;;5.72;100.00
71361;BME280;59166;48.908;1.870;2024-02-26T18:05:35;99187.75;;;5.74;100.00
71361;BME280;59166;48.908;1.870;2024-02-26T18:10:37;99193.66;;;5.76;100.00
71361;BME280;59166;48.908;1.870;2024-02-26T18:15:37;99220.50;;;5.81;100.00
71361;BME280;59166;48.908;1.870;2024-02-26T18:20:38;99216.16;;;5.75;100.00
71361;BME280;59166;48.908;1.870;2024-02-26T18:25:40;99234.88;;;5.70;100.00
71361;BME280;59166;48.908;1.870;2024-02-26T18:30:41;99243.69;;;5.65;100.00
71361;BME280;59166;48.908;1.870;2024-02-26T18:35:41;99255.25;;;5.71;100.00
71361;BME280;59166;48.908;1.870;2024-02-26T18:40:43;99271.06;;;5.72;100.00
71361;BME280;59166;48.908;1.870;2024-02-26T18:45:44;99284.72;;;5.71;100.00
71361;BME280;59166;48.908;1.870;2024-02-26T18:50:45;99301.66;;;5.77;100.00
71361;BME280;59166;48.908;1.870;2024-02-26T18:55:47;99310.75;;;5.75;100.00
71361;BME280;59166;48.908;1.870;2024-02-26T19:00:47;99317.97;;;5.75;100.00
71361;BME280;59166;48.908;1.870;2024-02-26T19:05:48;99341.56;;;5.73;100.00
71361;BME280;59166;48.908;1.870;2024-02-26T19:10:50;99352.31;;;5.78;100.00
71361;BME280;59166;48.908;1.870;2024-02-26T19:15:51;99355.56;;;5.80;100.00
71361;BME280;59166;48.908;1.870;2024-02-26T19:20:51;99364.16;;;5.82;100.00
71361;BME280;59166;48.908;1.870;2024-02-26T19:25:53;99377.53;;;5.82;100.00
71361;BME280;59166;48.908;1.870;2024-02-26T19:30:54;99381.28;;;5.81;100.00
71361;BME280;59166;48.908;1.870;2024-02-26T19:35:55;99378.78;;;5.74;100.00
71361;BME280;59166;48.908;1.870;2024-02-26T19:40:57;99397.63;;;5.80;100.00
71361;BME280;59166;48.908;1.870;2024-02-26T19:45:58;99402.47;;;5.83;100.00
71361;BME280;59166;48.908;1.870;2024-02-26T19:50:59;99428.41;;;5.77;100.00
71361;BME280;59166;48.908;1.870;2024-02-26T19:56:01;99438.44;;;5.87;100.00
71361;BME280;59166;48.908;1.870;2024-02-26T20:01:01;99445.91;;;5.85;100.00
71361;BME280;59166;48.908;1.870;2024-02-26T20:06:02;99462.56;;;5.87;100.00
71361;BME280;59166;48.908;1.870;2024-02-26T20:11:04;99487.63;;;5.97;100.00
71361;BME280;59166;48.908;1.870;2024-02-26T20:16:06;99489.22;;;5.98;100.00
71361;BME280;59166;48.908;1.870;2024-02-26T20:21:06;99494.53;;;5.93;100.00
71361;BME280;59166;48.908;1.870;2024-02-26T20:26:08;99512.72;;;5.91;100.00
71361;BME280;59166;48.908;1.870;2024-02-26T20:31:09;99523.03;;;5.99;100.00
71361;BME280;59166;48.908;1.870;2024-02-26T20:36:10;99539.91;;;6.00;100.00
71361;BME280;59166;48.908;1.870;2024-02-26T20:41:15;99560.13;;;6.07;100.00
71361;BME280;59166;48.908;1.870;2024-02-26T20:46:16;99576.44;;;6.06;100.00
71361;BME280;59166;48.908;1.870;2024-02-26T20:51:16;99568.31;;;6.01;100.00
71361;BME280;59166;48.908;1.870;2024-02-26T20:56:19;99588.72;;;6.02;100.00
71361;BME280;59166;48.908;1.870;2024-02-26T21:01:20;99597.16;;;6.10;100.00
71361;BME280;59166;48.908;1.870;2024-02-26T21:06:21;99597.16;;;6.10;100.00
71361;BME280;59166;48.908;1.870;2024-02-26T21:11:23;99622.97;;;6.16;100.00
71361;BME280;59166;48.908;1.870;2024-02-26T21:16:24;99631.25;;;6.15;100.00
71361;BME280;59166;48.908;1.870;2024-02-26T21:21:24;99632.03;;;6.10;100.00
71361;BME280;59166;48.908;1.870;2024-02-26T21:26:26;99644.16;;;6.18;100.00
71361;BME280;59166;48.908;1.870;2024-02-26T21:31:27;99644.16;;;6.18;100.00
71361;BME280;59166;48.908;1.870;2024-02-26T21:36:28;99662.63;;;6.14;100.00
71361;BME280;59166;48.908;1.870;2024-02-26T21:41:30;99673.97;;;6.21;100.00
71361;BME280;59166;48.908;1.870;2024-02-26T21:46:31;99677.75;;;6.20;100.00
71361;BME280;59166;48.908;1.870;2024-02-26T21:51:31;99691.88;;;6.16;100.00
71361;BME280;59166;48.908;1.870;2024-02-26T21:56:33;99687.66;;;6.20;100.00
71361;BME280;59166;48.908;1.870;2024-02-26T22:01:34;99698.69;;;6.23;100.00
71361;BME280;59166;48.908;1.870;2024-02-26T22:06:35;99712.03;;;6.18;100.00
71361;BME280;59166;48.908;1.870;2024-02-26T22:11:38;99722.25;;;6.21;100.00
71361;BME280;59166;48.908;1.870;2024-02-26T22:16:39;99724.38;;;6.19;100.00
71361;BME280;59166;48.908;1.870;2024-02-26T22:21:40;99766.59;;;6.07;100.00
71361;BME280;59166;48.908;1.870;2024-02-26T22:26:42;99756.47;;;6.14;100.00
71361;BME280;59166;48.908;1.870;2024-02-26T22:31:43;99764.19;;;6.11;100.00
71361;BME280;59166;48.908;1.870;2024-02-26T22:36:44;99776.88;;;6.15;100.00
71361;BME280;59166;48.908;1.870;2024-02-26T22:41:46;99788.91;;;6.13;100.00
71361;BME280;59166;48.908;1.870;2024-02-26T22:46:46;99793.94;;;6.09;100.00
71361;BME280;59166;48.908;1.870;2024-02-26T22:51:47;99802.06;;;6.14;100.00
71361;BME280;59166;48.908;1.870;2024-02-26T22:56:49;99796.13;;;6.12;100.00
71361;BME280;59166;48.908;1.870;2024-02-26T23:01:50;99809.00;;;6.10;100.00
71361;BME280;59166;48.908;1.870;2024-02-26T23:06:50;99829.19;;;6.01;100.00
71361;BME280;59166;48.908;1.870;2024-02-26T23:11:53;99827.75;;;6.10;100.00
71361;BME280;59166;48.908;1.870;2024-02-26T23:16:53;99832.03;;;6.11;100.00
71361;BME280;59166;48.908;1.870;2024-02-26T23:21:54;99843.84;;;6.10;100.00
71361;BME280;59166;48.908;1.870;2024-02-26T23:26:56;99829.94;;;6.13;100.00
71361;BME280;59166;48.908;1.870;2024-02-26T23:31:57;99838.97;;;6.07;100.00
71361;BME280;59166;48.908;1.870;2024-02-26T23:36:57;99851.97;;;6.15;100.00
71361;BME280;59166;48.908;1.870;2024-02-26T23:41:59;99868.53;;;6.12;100.00
71361;BME280;59166;48.908;1.870;2024-02-26T23:47:00;99868.53;;;6.12;100.00
71361;BME280;59166;48.908;1.870;2024-02-26T23:52:02;99883.97;;;6.05;100.00
71361;BME280;59166;48.908;1.870;2024-02-26T23:57:04;99895.53;;;6.22;100.00
